sensor_id;sensor_type;location;lat;lon;timestamp;temperature;humidity
1504;DHT22;743;47.076;15.494;2023-03-01T00:01:33;5.30;1.00
1504;DHT22;743;47.076;15.494;2023-03-01T00:06:27;5.00;1.00
1504;DHT22;743;47.076;15.494;2023-03-01T00:08:55;5.60;1.00
1504;DHT22;743;47.076;15.494;2023-03-01T00:11:24;5.70;1.00
1504;DHT22;743;47.076;15.494;2023-03-01T00:13:55;5.20;1.00
1504;DHT22;743;47.076;15.494;2023-03-01T00:16:24;5.10;1.00
1504;DHT22;743;47.076;15.494;2023-03-01T00:21:20;5.40;1.00
1504;DHT22;743;47.076;15.494;2023-03-01T00:23:48;5.10;1.00
1504;DHT22;743;47.076;15.494;2023-03-01T00:26:16;5.30;1.00
1504;DHT22;743;47.076;15.494;2023-03-01T00:28:44;5.50;1.00
1504;DHT22;743;47.076;15.494;2023-03-01T00:31:16;5.20;1.00
1504;DHT22;743;47.076;15.494;2023-03-01T00:33:44;5.20;1.00
1504;DHT22;743;47.076;15.494;2023-03-01T00:36:13;5.00;1.00
1504;DHT22;743;47.076;15.494;2023-03-01T00:38:42;5.20;1.00
1504;DHT22;743;47.076;15.494;2023-03-01T00:41:11;5.20;1.00
1504;DHT22;743;47.076;15.494;2023-03-01T00:43:39;5.00;1.00
1504;DHT22;743;47.076;15.494;2023-03-01T00:46:08;5.20;1.00
1504;DHT22;743;47.076;15.494;2023-03-01T00:48:37;5.10;1.00
1504;DHT22;743;47.076;15.494;2023-03-01T00:51:06;5.30;1.00
1504;DHT22;743;47.076;15.494;2023-03-01T00:53:34;5.60;1.00
1504;DHT22;743;47.076;15.494;2023-03-01T00:56:05;5.20;1.00
1504;DHT22;743;47.076;15.494;2023-03-01T00:58:33;5.40;1.00
1504;DHT22;743;47.076;15.494;2023-03-01T01:01:06;5.50;1.00
1504;DHT22;743;47.076;15.494;2023-03-01T01:03:46;5.50;1.00
1504;DHT22;743;47.076;15.494;2023-03-01T01:06:16;5.70;1.00
1504;DHT22;743;47.076;15.494;2023-03-01T01:13:40;5.40;1.00
1504;DHT22;743;47.076;15.494;2023-03-01T01:16:08;5.40;1.00
1504;DHT22;743;47.076;15.494;2023-03-01T01:18:35;5.50;1.00
1504;DHT22;743;47.076;15.494;2023-03-01T01:21:10;5.60;1.00
1504;DHT22;743;47.076;15.494;2023-03-01T01:23:38;5.50;1.00
1504;DHT22;743;47.076;15.494;2023-03-01T01:26:07;5.40;1.00
1504;DHT22;743;47.076;15.494;2023-03-01T01:28:36;5.60;1.00
1504;DHT22;743;47.076;15.494;2023-03-01T01:31:03;5.20;1.00
1504;DHT22;743;47.076;15.494;2023-03-01T01:33:32;5.70;1.00
1504;DHT22;743;47.076;15.494;2023-03-01T01:36:00;5.50;1.00
1504;DHT22;743;47.076;15.494;2023-03-01T01:38:29;5.50;1.00
1504;DHT22;743;47.076;15.494;2023-03-01T01:40:57;5.60;1.00
1504;DHT22;743;47.076;15.494;2023-03-01T01:43:28;5.30;1.00
1504;DHT22;743;47.076;15.494;2023-03-01T01:45:56;5.40;1.00
1504;DHT22;743;47.076;15.494;2023-03-01T01:48:38;5.40;1.00
1504;DHT22;743;47.076;15.494;2023-03-01T01:51:09;5.00;1.00
1504;DHT22;743;47.076;15.494;2023-03-01T01:53:41;5.50;1.00
1504;DHT22;743;47.076;15.494;2023-03-01T01:56:12;5.50;1.00
1504;DHT22;743;47.076;15.494;2023-03-01T01:58:43;5.50;1.00
1504;DHT22;743;47.076;15.494;2023-03-01T02:01:12;5.40;1.00
1504;DHT22;743;47.076;15.494;2023-03-01T02:03:40;5.60;1.00
1504;DHT22;743;47.076;15.494;2023-03-01T02:06:17;5.60;1.00
1504;DHT22;743;47.076;15.494;2023-03-01T02:08:49;5.60;1.00
1504;DHT22;743;47.076;15.494;2023-03-01T02:11:19;5.60;1.00
1504;DHT22;743;47.076;15.494;2023-03-01T02:13:48;5.70;1.00
1504;DHT22;743;47.076;15.494;2023-03-01T02:16:16;6.00;1.00
1504;DHT22;743;47.076;15.494;2023-03-01T02:18:45;5.70;1.00
1504;DHT22;743;47.076;15.494;2023-03-01T02:21:23;5.70;1.00
1504;DHT22;743;47.076;15.494;2023-03-01T02:23:54;5.10;1.00
1504;DHT22;743;47.076;15.494;2023-03-01T02:26:30;5.30;1.00
1504;DHT22;743;47.076;15.494;2023-03-01T02:29:04;5.70;1.00
1504;DHT22;743;47.076;15.494;2023-03-01T02:31:32;5.80;1.00
1504;DHT22;743;47.076;15.494;2023-03-01T02:34:11;6.00;1.00
1504;DHT22;743;47.076;15.494;2023-03-01T02:36:42;5.90;1.00
1504;DHT22;743;47.076;15.494;2023-03-01T02:39:14;5.80;1.00
1504;DHT22;743;47.076;15.494;2023-03-01T02:41:47;5.70;1.00
1504;DHT22;743;47.076;15.494;2023-03-01T02:44:19;6.00;1.00
1504;DHT22;743;47.076;15.494;2023-03-01T02:46:49;5.80;1.00
1504;DHT22;743;47.076;15.494;2023-03-01T02:49:24;6.00;1.00
1504;DHT22;743;47.076;15.494;2023-03-01T02:52:08;5.90;1.00
1504;DHT22;743;47.076;15.494;2023-03-01T02:54:43;5.80;1.00
1504;DHT22;743;47.076;15.494;2023-03-01T02:57:14;5.80;1.00
1504;DHT22;743;47.076;15.494;2023-03-01T02:59:43;6.00;1.00
1504;DHT22;743;47.076;15.494;2023-03-01T03:02:20;6.00;1.00
1504;DHT22;743;47.076;15.494;2023-03-01T03:05:03;6.10;1.00
1504;DHT22;743;47.076;15.494;2023-03-01T03:07:32;5.80;1.00
1504;DHT22;743;47.076;15.494;2023-03-01T03:10:00;6.10;1.00
1504;DHT22;743;47.076;15.494;2023-03-01T03:12:27;6.10;1.00
1504;DHT22;743;47.076;15.494;2023-03-01T03:14:56;5.90;1.00
1504;DHT22;743;47.076;15.494;2023-03-01T03:17:24;6.50;1.00
1504;DHT22;743;47.076;15.494;2023-03-01T03:19:51;6.10;1.00
1504;DHT22;743;47.076;15.494;2023-03-01T03:24:46;6.10;1.00
1504;DHT22;743;47.076;15.494;2023-03-01T03:27:14;5.90;1.00
1504;DHT22;743;47.076;15.494;2023-03-01T03:29:41;6.40;1.00
1504;DHT22;743;47.076;15.494;2023-03-01T03:32:10;6.10;1.00
1504;DHT22;743;47.076;15.494;2023-03-01T03:37:06;5.90;1.00
1504;DHT22;743;47.076;15.494;2023-03-01T03:39:53;5.90;1.00
1504;DHT22;743;47.076;15.494;2023-03-01T03:42:20;6.10;1.00
1504;DHT22;743;47.076;15.494;2023-03-01T03:44:51;6.20;1.00
1504;DHT22;743;47.076;15.494;2023-03-01T03:47:20;6.20;1.00
1504;DHT22;743;47.076;15.494;2023-03-01T03:49:50;6.20;1.00
1504;DHT22;743;47.076;15.494;2023-03-01T03:52:17;6.00;1.00
1504;DHT22;743;47.076;15.494;2023-03-01T03:57:12;6.40;1.00
1504;DHT22;743;47.076;15.494;2023-03-01T03:59:42;6.00;1.00
1504;DHT22;743;47.076;15.494;2023-03-01T04:02:09;6.10;1.00
1504;DHT22;743;47.076;15.494;2023-03-01T04:04:37;6.20;1.00
1504;DHT22;743;47.076;15.494;2023-03-01T04:09:32;6.30;1.00
1504;DHT22;743;47.076;15.494;2023-03-01T04:12:00;5.80;1.00
1504;DHT22;743;47.076;15.494;2023-03-01T04:14:28;6.10;1.00
1504;DHT22;743;47.076;15.494;2023-03-01T04:16:55;6.50;1.00
1504;DHT22;743;47.076;15.494;2023-03-01T04:19:24;5.60;1.00
1504;DHT22;743;47.076;15.494;2023-03-01T04:21:54;6.00;1.00
1504;DHT22;743;47.076;15.494;2023-03-01T04:24:23;5.60;1.00
1504;DHT22;743;47.076;15.494;2023-03-01T04:26:50;5.80;1.00
1504;DHT22;743;47.076;15.494;2023-03-01T04:29:17;6.10;1.00
1504;DHT22;743;47.076;15.494;2023-03-01T04:31:45;6.30;1.00
1504;DHT22;743;47.076;15.494;2023-03-01T04:34:12;6.30;1.00
1504;DHT22;743;47.076;15.494;2023-03-01T04:36:40;6.30;1.00
1504;DHT22;743;47.076;15.494;2023-03-01T04:39:10;6.20;1.00
1504;DHT22;743;47.076;15.494;2023-03-01T04:41:39;6.10;1.00
1504;DHT22;743;47.076;15.494;2023-03-01T04:44:10;5.40;1.00
1504;DHT22;743;47.076;15.494;2023-03-01T04:46:38;6.20;1.00
1504;DHT22;743;47.076;15.494;2023-03-01T04:49:06;6.00;1.00
1504;DHT22;743;47.076;15.494;2023-03-01T04:51:33;6.10;1.00
1504;DHT22;743;47.076;15.494;2023-03-01T04:54:01;6.40;1.00
1504;DHT22;743;47.076;15.494;2023-03-01T04:56:30;5.90;1.00
1504;DHT22;743;47.076;15.494;2023-03-01T04:58:59;5.70;1.00
1504;DHT22;743;47.076;15.494;2023-03-01T05:01:27;6.40;1.00
1504;DHT22;743;47.076;15.494;2023-03-01T05:06:22;6.20;1.00
1504;DHT22;743;47.076;15.494;2023-03-01T05:08:50;6.60;1.00
1504;DHT22;743;47.076;15.494;2023-03-01T05:11:18;5.90;1.00
1504;DHT22;743;47.076;15.494;2023-03-01T05:13:47;6.20;1.00
1504;DHT22;743;47.076;15.494;2023-03-01T05:16:16;5.90;1.00
1504;DHT22;743;47.076;15.494;2023-03-01T05:18:45;5.70;1.00
1504;DHT22;743;47.076;15.494;2023-03-01T05:21:13;6.00;1.00
1504;DHT22;743;47.076;15.494;2023-03-01T05:23:41;5.60;1.00
1504;DHT22;743;47.076;15.494;2023-03-01T05:26:09;5.30;1.00
1504;DHT22;743;47.076;15.494;2023-03-01T05:28:38;5.90;1.00
1504;DHT22;743;47.076;15.494;2023-03-01T05:31:07;5.60;1.00
1504;DHT22;743;47.076;15.494;2023-03-01T05:33:36;5.90;1.00
1504;DHT22;743;47.076;15.494;2023-03-01T05:36:05;5.90;1.00
1504;DHT22;743;47.076;15.494;2023-03-01T05:38:32;5.80;1.00
1504;DHT22;743;47.076;15.494;2023-03-01T05:41:01;5.50;1.00
1504;DHT22;743;47.076;15.494;2023-03-01T05:43:31;6.00;1.00
1504;DHT22;743;47.076;15.494;2023-03-01T05:45:59;5.90;1.00
1504;DHT22;743;47.076;15.494;2023-03-01T05:48:30;5.90;1.00
1504;DHT22;743;47.076;15.494;2023-03-01T05:50:59;5.90;1.00
1504;DHT22;743;47.076;15.494;2023-03-01T05:53:27;5.90;1.00
1504;DHT22;743;47.076;15.494;2023-03-01T05:55:55;6.10;1.00
1504;DHT22;743;47.076;15.494;2023-03-01T05:58:23;5.90;1.00
1504;DHT22;743;47.076;15.494;2023-03-01T06:00:50;6.30;1.00
1504;DHT22;743;47.076;15.494;2023-03-01T06:03:18;6.60;1.00
1504;DHT22;743;47.076;15.494;2023-03-01T06:05:56;7.10;1.00
1504;DHT22;743;47.076;15.494;2023-03-01T06:08:23;6.90;1.00
1504;DHT22;743;47.076;15.494;2023-03-01T06:10:53;6.80;1.00
1504;DHT22;743;47.076;15.494;2023-03-01T06:13:21;6.80;1.00
1504;DHT22;743;47.076;15.494;2023-03-01T06:15:51;6.10;1.00
1504;DHT22;743;47.076;15.494;2023-03-01T06:18:18;6.10;1.00
1504;DHT22;743;47.076;15.494;2023-03-01T06:20:54;5.80;1.00
1504;DHT22;743;47.076;15.494;2023-03-01T06:23:22;5.70;1.00
1504;DHT22;743;47.076;15.494;2023-03-01T06:25:51;6.10;1.00
1504;DHT22;743;47.076;15.494;2023-03-01T06:28:20;6.60;99.90
1504;DHT22;743;47.076;15.494;2023-03-01T06:30:47;8.90;99.90
1504;DHT22;743;47.076;15.494;2023-03-01T06:33:15;10.20;1.00
1504;DHT22;743;47.076;15.494;2023-03-01T06:35:45;9.80;1.00
1504;DHT22;743;47.076;15.494;2023-03-01T06:38:14;9.20;1.00
1504;DHT22;743;47.076;15.494;2023-03-01T06:43:11;8.10;1.00
1504;DHT22;743;47.076;15.494;2023-03-01T06:45:38;7.60;1.00
1504;DHT22;743;47.076;15.494;2023-03-01T06:48:07;7.00;1.00
1504;DHT22;743;47.076;15.494;2023-03-01T06:50:34;6.50;1.00
1504;DHT22;743;47.076;15.494;2023-03-01T06:53:02;6.40;1.00
1504;DHT22;743;47.076;15.494;2023-03-01T06:55:31;6.50;1.00
1504;DHT22;743;47.076;15.494;2023-03-01T06:58:01;6.50;1.00
1504;DHT22;743;47.076;15.494;2023-03-01T07:00:29;6.40;1.00
1504;DHT22;743;47.076;15.494;2023-03-01T07:03:00;6.40;1.00
1504;DHT22;743;47.076;15.494;2023-03-01T07:05:29;6.70;1.00
1504;DHT22;743;47.076;15.494;2023-03-01T07:07:56;6.70;1.00
1504;DHT22;743;47.076;15.494;2023-03-01T07:12:57;6.50;1.00
1504;DHT22;743;47.076;15.494;2023-03-01T07:15:27;6.50;1.00
1504;DHT22;743;47.076;15.494;2023-03-01T07:17:56;7.10;1.00
1504;DHT22;743;47.076;15.494;2023-03-01T07:22:52;6.40;1.00
1504;DHT22;743;47.076;15.494;2023-03-01T07:25:20;7.90;99.90
1504;DHT22;743;47.076;15.494;2023-03-01T07:27:49;10.00;1.00
1504;DHT22;743;47.076;15.494;2023-03-01T07:30:19;11.50;1.00
1504;DHT22;743;47.076;15.494;2023-03-01T07:32:47;11.20;1.00
1504;DHT22;743;47.076;15.494;2023-03-01T07:35:18;9.70;1.00
1504;DHT22;743;47.076;15.494;2023-03-01T07:37:46;8.90;1.00
1504;DHT22;743;47.076;15.494;2023-03-01T07:40:15;8.30;1.00
1504;DHT22;743;47.076;15.494;2023-03-01T07:42:42;7.90;1.00
1504;DHT22;743;47.076;15.494;2023-03-01T07:45:10;7.50;1.00
1504;DHT22;743;47.076;15.494;2023-03-01T07:47:40;7.30;1.00
1504;DHT22;743;47.076;15.494;2023-03-01T07:50:10;7.00;1.00
1504;DHT22;743;47.076;15.494;2023-03-01T07:52:39;7.20;1.00
1504;DHT22;743;47.076;15.494;2023-03-01T07:55:07;7.40;1.00
1504;DHT22;743;47.076;15.494;2023-03-01T07:57:34;7.30;1.00
1504;DHT22;743;47.076;15.494;2023-03-01T08:00:02;6.90;1.00
1504;DHT22;743;47.076;15.494;2023-03-01T08:02:29;7.40;1.00
1504;DHT22;743;47.076;15.494;2023-03-01T08:04:58;7.00;1.00
1504;DHT22;743;47.076;15.494;2023-03-01T08:07:27;7.20;1.00
1504;DHT22;743;47.076;15.494;2023-03-01T08:09:54;6.90;1.00
1504;DHT22;743;47.076;15.494;2023-03-01T08:12:21;7.20;1.00
1504;DHT22;743;47.076;15.494;2023-03-01T08:14:50;7.40;1.00
1504;DHT22;743;47.076;15.494;2023-03-01T08:17:17;7.20;1.00
1504;DHT22;743;47.076;15.494;2023-03-01T08:19:45;7.30;1.00
1504;DHT22;743;47.076;15.494;2023-03-01T08:22:14;7.40;1.00
1504;DHT22;743;47.076;15.494;2023-03-01T08:24:41;7.20;1.00
1504;DHT22;743;47.076;15.494;2023-03-01T08:27:08;7.20;1.00
1504;DHT22;743;47.076;15.494;2023-03-01T08:29:37;6.80;1.00
1504;DHT22;743;47.076;15.494;2023-03-01T08:34:32;6.90;1.00
1504;DHT22;743;47.076;15.494;2023-03-01T08:37:01;6.90;1.00
1504;DHT22;743;47.076;15.494;2023-03-01T08:39:30;6.50;1.00
1504;DHT22;743;47.076;15.494;2023-03-01T08:41:58;7.00;1.00
1504;DHT22;743;47.076;15.494;2023-03-01T08:44:25;7.30;1.00
1504;DHT22;743;47.076;15.494;2023-03-01T08:46:53;7.80;1.00
1504;DHT22;743;47.076;15.494;2023-03-01T08:49:21;7.50;1.00
1504;DHT22;743;47.076;15.494;2023-03-01T08:51:49;7.60;1.00
1504;DHT22;743;47.076;15.494;2023-03-01T08:54:19;7.40;1.00
1504;DHT22;743;47.076;15.494;2023-03-01T08:56:50;7.20;1.00
1504;DHT22;743;47.076;15.494;2023-03-01T08:59:19;7.30;1.00
1504;DHT22;743;47.076;15.494;2023-03-01T09:04:15;6.60;1.00
1504;DHT22;743;47.076;15.494;2023-03-01T09:06:48;7.20;1.00
1504;DHT22;743;47.076;15.494;2023-03-01T09:09:16;7.10;1.00
1504;DHT22;743;47.076;15.494;2023-03-01T09:11:45;7.70;1.00
1504;DHT22;743;47.076;15.494;2023-03-01T09:14:14;7.30;1.00
1504;DHT22;743;47.076;15.494;2023-03-01T09:16:42;7.20;1.00
1504;DHT22;743;47.076;15.494;2023-03-01T09:21:38;6.90;1.00
1504;DHT22;743;47.076;15.494;2023-03-01T09:24:08;6.90;1.00
1504;DHT22;743;47.076;15.494;2023-03-01T09:26:39;7.60;1.00
1504;DHT22;743;47.076;15.494;2023-03-01T09:29:06;6.60;1.00
1504;DHT22;743;47.076;15.494;2023-03-01T09:31:54;6.90;1.00
1504;DHT22;743;47.076;15.494;2023-03-01T09:34:22;7.00;1.00
1504;DHT22;743;47.076;15.494;2023-03-01T09:42:00;6.50;1.00
1504;DHT22;743;47.076;15.494;2023-03-01T09:44:35;6.30;1.00
1504;DHT22;743;47.076;15.494;2023-03-01T09:47:10;6.60;1.00
1504;DHT22;743;47.076;15.494;2023-03-01T09:49:43;6.70;1.00
1504;DHT22;743;47.076;15.494;2023-03-01T09:52:21;6.50;1.00
1504;DHT22;743;47.076;15.494;2023-03-01T09:54:54;6.30;1.00
1504;DHT22;743;47.076;15.494;2023-03-01T09:57:29;6.60;1.00
1504;DHT22;743;47.076;15.494;2023-03-01T10:00:20;6.90;1.00
1504;DHT22;743;47.076;15.494;2023-03-01T10:03:00;7.00;1.00
1504;DHT22;743;47.076;15.494;2023-03-01T10:05:44;6.80;1.00
1504;DHT22;743;47.076;15.494;2023-03-01T10:08:35;6.90;1.00
1504;DHT22;743;47.076;15.494;2023-03-01T10:11:17;7.00;1.00
1504;DHT22;743;47.076;15.494;2023-03-01T10:13:50;7.10;1.00
1504;DHT22;743;47.076;15.494;2023-03-01T10:16:27;7.10;1.00
1504;DHT22;743;47.076;15.494;2023-03-01T10:19:00;7.50;1.00
1504;DHT22;743;47.076;15.494;2023-03-01T10:21:30;7.30;1.00
1504;DHT22;743;47.076;15.494;2023-03-01T10:24:07;7.20;1.00
1504;DHT22;743;47.076;15.494;2023-03-01T10:26:53;7.90;1.00
1504;DHT22;743;47.076;15.494;2023-03-01T10:29:48;8.00;1.00
1504;DHT22;743;47.076;15.494;2023-03-01T10:34:51;7.80;1.00
1504;DHT22;743;47.076;15.494;2023-03-01T10:37:20;7.60;1.00
1504;DHT22;743;47.076;15.494;2023-03-01T10:40:01;7.20;1.00
1504;DHT22;743;47.076;15.494;2023-03-01T10:42:37;7.50;1.00
1504;DHT22;743;47.076;15.494;2023-03-01T10:45:32;7.70;1.00
1504;DHT22;743;47.076;15.494;2023-03-01T10:48:11;7.30;1.00
1504;DHT22;743;47.076;15.494;2023-03-01T10:50:49;7.30;1.00
1504;DHT22;743;47.076;15.494;2023-03-01T10:53:24;7.40;1.00
1504;DHT22;743;47.076;15.494;2023-03-01T10:56:07;8.10;1.00
1504;DHT22;743;47.076;15.494;2023-03-01T10:58:56;7.80;1.00
1504;DHT22;743;47.076;15.494;2023-03-01T11:01:32;7.70;1.00
1504;DHT22;743;47.076;15.494;2023-03-01T11:04:12;7.50;1.00
1504;DHT22;743;47.076;15.494;2023-03-01T11:06:59;7.40;1.00
1504;DHT22;743;47.076;15.494;2023-03-01T11:09:33;7.60;1.00
1504;DHT22;743;47.076;15.494;2023-03-01T11:12:12;7.90;1.00
1504;DHT22;743;47.076;15.494;2023-03-01T11:14:47;8.10;1.00
1504;DHT22;743;47.076;15.494;2023-03-01T11:17:21;7.80;1.00
1504;DHT22;743;47.076;15.494;2023-03-01T11:20:09;7.90;1.00
1504;DHT22;743;47.076;15.494;2023-03-01T11:22:47;7.90;1.00
1504;DHT22;743;47.076;15.494;2023-03-01T11:25:26;7.30;1.00
1504;DHT22;743;47.076;15.494;2023-03-01T11:27:54;7.50;1.00
1504;DHT22;743;47.076;15.494;2023-03-01T11:30:25;7.60;1.00
1504;DHT22;743;47.076;15.494;2023-03-01T11:33:03;7.70;1.00
1504;DHT22;743;47.076;15.494;2023-03-01T11:35:57;7.60;1.00
1504;DHT22;743;47.076;15.494;2023-03-01T11:38:36;7.70;1.00
1504;DHT22;743;47.076;15.494;2023-03-01T11:41:10;7.60;1.00
1504;DHT22;743;47.076;15.494;2023-03-01T11:43:49;7.40;1.00
1504;DHT22;743;47.076;15.494;2023-03-01T11:46:59;7.40;1.00
1504;DHT22;743;47.076;15.494;2023-03-01T11:49:57;7.20;1.00
1504;DHT22;743;47.076;15.494;2023-03-01T11:52:36;7.20;1.00
1504;DHT22;743;47.076;15.494;2023-03-01T11:55:20;7.20;1.00
1504;DHT22;743;47.076;15.494;2023-03-01T11:58:14;7.60;1.00
1504;DHT22;743;47.076;15.494;2023-03-01T12:01:07;7.00;1.00
1504;DHT22;743;47.076;15.494;2023-03-01T12:04:01;8.30;1.00
1504;DHT22;743;47.076;15.494;2023-03-01T12:06:42;7.60;1.00
1504;DHT22;743;47.076;15.494;2023-03-01T12:12:29;7.70;1.00
1504;DHT22;743;47.076;15.494;2023-03-01T12:15:34;7.30;1.00
1504;DHT22;743;47.076;15.494;2023-03-01T12:21:21;7.40;1.00
1504;DHT22;743;47.076;15.494;2023-03-01T12:24:15;7.10;1.00
1504;DHT22;743;47.076;15.494;2023-03-01T12:30:25;7.80;1.00
1504;DHT22;743;47.076;15.494;2023-03-01T12:33:07;7.80;1.00
1504;DHT22;743;47.076;15.494;2023-03-01T12:36:05;7.70;1.00
1504;DHT22;743;47.076;15.494;2023-03-01T12:38:41;7.60;1.00
1504;DHT22;743;47.076;15.494;2023-03-01T12:47:14;8.10;1.00
1504;DHT22;743;47.076;15.494;2023-03-01T12:49:44;8.10;1.00
1504;DHT22;743;47.076;15.494;2023-03-01T12:52:16;8.10;1.00
1504;DHT22;743;47.076;15.494;2023-03-01T12:54:49;8.40;1.00
1504;DHT22;743;47.076;15.494;2023-03-01T12:57:26;8.30;1.00
1504;DHT22;743;47.076;15.494;2023-03-01T13:00:05;8.50;1.00
1504;DHT22;743;47.076;15.494;2023-03-01T13:02:45;8.70;1.00
1504;DHT22;743;47.076;15.494;2023-03-01T13:05:26;8.50;1.00
1504;DHT22;743;47.076;15.494;2023-03-01T13:08:02;8.70;1.00
1504;DHT22;743;47.076;15.494;2023-03-01T13:10:39;8.60;1.00
1504;DHT22;743;47.076;15.494;2023-03-01T13:13:20;8.70;1.00
1504;DHT22;743;47.076;15.494;2023-03-01T13:15:47;8.80;1.00
1504;DHT22;743;47.076;15.494;2023-03-01T13:18:32;8.80;1.00
1504;DHT22;743;47.076;15.494;2023-03-01T13:21:03;8.50;1.00
1504;DHT22;743;47.076;15.494;2023-03-01T13:23:36;8.70;1.00
1504;DHT22;743;47.076;15.494;2023-03-01T13:26:11;8.10;1.00
1504;DHT22;743;47.076;15.494;2023-03-01T13:28:57;9.00;1.00
1504;DHT22;743;47.076;15.494;2023-03-01T13:32:01;9.20;1.00
1504;DHT22;743;47.076;15.494;2023-03-01T13:34:44;9.10;1.00
1504;DHT22;743;47.076;15.494;2023-03-01T13:37:23;9.50;1.00
1504;DHT22;743;47.076;15.494;2023-03-01T13:40:00;8.60;1.00
1504;DHT22;743;47.076;15.494;2023-03-01T13:42:41;9.30;1.00
1504;DHT22;743;47.076;15.494;2023-03-01T13:45:19;9.20;1.00
1504;DHT22;743;47.076;15.494;2023-03-01T13:47:53;9.20;1.00
1504;DHT22;743;47.076;15.494;2023-03-01T13:50:28;9.10;1.00
1504;DHT22;743;47.076;15.494;2023-03-01T13:52:58;9.40;1.00
1504;DHT22;743;47.076;15.494;2023-03-01T13:55:34;8.80;1.00
1504;DHT22;743;47.076;15.494;2023-03-01T13:58:05;9.00;1.00
1504;DHT22;743;47.076;15.494;2023-03-01T14:00:42;9.60;1.00
1504;DHT22;743;47.076;15.494;2023-03-01T14:03:13;9.20;1.00
1504;DHT22;743;47.076;15.494;2023-03-01T14:06:01;9.20;1.00
1504;DHT22;743;47.076;15.494;2023-03-01T14:08:30;9.10;1.00
1504;DHT22;743;47.076;15.494;2023-03-01T14:11:27;9.10;1.00
1504;DHT22;743;47.076;15.494;2023-03-01T14:14:17;9.20;1.00
1504;DHT22;743;47.076;15.494;2023-03-01T14:20:17;9.30;1.00
1504;DHT22;743;47.076;15.494;2023-03-01T14:22:49;9.80;1.00
1504;DHT22;743;47.076;15.494;2023-03-01T14:25:27;9.10;1.00
1504;DHT22;743;47.076;15.494;2023-03-01T14:28:02;9.30;1.00
1504;DHT22;743;47.076;15.494;2023-03-01T14:30:34;9.10;1.00
1504;DHT22;743;47.076;15.494;2023-03-01T14:33:06;8.90;1.00
1504;DHT22;743;47.076;15.494;2023-03-01T14:35:53;9.20;1.00
1504;DHT22;743;47.076;15.494;2023-03-01T14:38:29;10.10;1.00
1504;DHT22;743;47.076;15.494;2023-03-01T14:41:02;12.00;1.00
1504;DHT22;743;47.076;15.494;2023-03-01T14:43:33;13.10;1.00
1504;DHT22;743;47.076;15.494;2023-03-01T14:46:01;13.00;1.00
1504;DHT22;743;47.076;15.494;2023-03-01T14:48:30;12.60;1.00
1504;DHT22;743;47.076;15.494;2023-03-01T14:53:29;11.50;1.00
1504;DHT22;743;47.076;15.494;2023-03-01T14:56:00;10.90;1.00
1504;DHT22;743;47.076;15.494;2023-03-01T14:58:32;10.70;1.00
1504;DHT22;743;47.076;15.494;2023-03-01T15:01:04;10.80;1.00
1504;DHT22;743;47.076;15.494;2023-03-01T15:03:38;10.40;1.00
1504;DHT22;743;47.076;15.494;2023-03-01T15:06:11;10.20;1.00
1504;DHT22;743;47.076;15.494;2023-03-01T15:08:44;10.00;1.00
1504;DHT22;743;47.076;15.494;2023-03-01T15:11:23;10.00;1.00
1504;DHT22;743;47.076;15.494;2023-03-01T15:13:55;9.60;1.00
1504;DHT22;743;47.076;15.494;2023-03-01T15:16:26;11.70;99.90
1504;DHT22;743;47.076;15.494;2023-03-01T15:18:55;12.70;1.00
1504;DHT22;743;47.076;15.494;2023-03-01T15:21:26;14.10;1.00
1504;DHT22;743;47.076;15.494;2023-03-01T15:23:59;14.60;1.00
1504;DHT22;743;47.076;15.494;2023-03-01T15:26:31;15.30;1.00
1504;DHT22;743;47.076;15.494;2023-03-01T15:29:00;15.10;1.00
1504;DHT22;743;47.076;15.494;2023-03-01T15:31:31;14.50;1.00
1504;DHT22;743;47.076;15.494;2023-03-01T15:34:19;13.00;1.00
1504;DHT22;743;47.076;15.494;2023-03-01T15:36:48;12.00;1.00
1504;DHT22;743;47.076;15.494;2023-03-01T15:39:45;11.50;1.00
1504;DHT22;743;47.076;15.494;2023-03-01T15:42:38;11.10;1.00
1504;DHT22;743;47.076;15.494;2023-03-01T15:45:19;10.70;1.00
1504;DHT22;743;47.076;15.494;2023-03-01T15:47:48;10.70;1.00
1504;DHT22;743;47.076;15.494;2023-03-01T15:50:20;10.40;1.00
1504;DHT22;743;47.076;15.494;2023-03-01T15:52:48;10.10;1.00
1504;DHT22;743;47.076;15.494;2023-03-01T15:55:20;9.90;1.00
1504;DHT22;743;47.076;15.494;2023-03-01T15:57:50;9.70;1.00
1504;DHT22;743;47.076;15.494;2023-03-01T16:00:26;10.90;99.90
1504;DHT22;743;47.076;15.494;2023-03-01T16:02:54;12.50;1.00
1504;DHT22;743;47.076;15.494;2023-03-01T16:05:25;13.90;1.00
1504;DHT22;743;47.076;15.494;2023-03-01T16:07:56;13.80;1.00
1504;DHT22;743;47.076;15.494;2023-03-01T16:10:30;13.00;1.00
1504;DHT22;743;47.076;15.494;2023-03-01T16:13:03;12.80;1.00
1504;DHT22;743;47.076;15.494;2023-03-01T16:15:41;11.80;1.00
1504;DHT22;743;47.076;15.494;2023-03-01T16:18:12;11.20;1.00
1504;DHT22;743;47.076;15.494;2023-03-01T16:20:42;11.10;1.00
1504;DHT22;743;47.076;15.494;2023-03-01T16:23:16;10.50;1.00
1504;DHT22;743;47.076;15.494;2023-03-01T16:25:52;10.60;1.00
1504;DHT22;743;47.076;15.494;2023-03-01T16:28:23;10.10;1.00
1504;DHT22;743;47.076;15.494;2023-03-01T16:30:52;9.90;1.00
1504;DHT22;743;47.076;15.494;2023-03-01T16:33:21;9.90;1.00
1504;DHT22;743;47.076;15.494;2023-03-01T16:35:50;10.00;1.00
1504;DHT22;743;47.076;15.494;2023-03-01T16:38:19;9.10;1.00
1504;DHT22;743;47.076;15.494;2023-03-01T16:40:51;9.30;1.00
1504;DHT22;743;47.076;15.494;2023-03-01T16:43:23;9.30;1.00
1504;DHT22;743;47.076;15.494;2023-03-01T16:45:58;9.10;1.00
1504;DHT22;743;47.076;15.494;2023-03-01T16:48:35;8.90;1.00
1504;DHT22;743;47.076;15.494;2023-03-01T16:51:07;9.10;1.00
1504;DHT22;743;47.076;15.494;2023-03-01T16:53:44;8.90;1.00
1504;DHT22;743;47.076;15.494;2023-03-01T16:56:20;8.90;1.00
1504;DHT22;743;47.076;15.494;2023-03-01T16:59:06;8.70;1.00
1504;DHT22;743;47.076;15.494;2023-03-01T17:01:35;8.80;1.00
1504;DHT22;743;47.076;15.494;2023-03-01T17:04:09;9.00;1.00
1504;DHT22;743;47.076;15.494;2023-03-01T17:06:38;8.80;1.00
1504;DHT22;743;47.076;15.494;2023-03-01T17:09:14;8.70;1.00
1504;DHT22;743;47.076;15.494;2023-03-01T17:11:50;8.60;1.00
1504;DHT22;743;47.076;15.494;2023-03-01T17:14:20;8.70;1.00
1504;DHT22;743;47.076;15.494;2023-03-01T17:16:48;8.70;1.00
1504;DHT22;743;47.076;15.494;2023-03-01T17:19:29;9.20;1.00
1504;DHT22;743;47.076;15.494;2023-03-01T17:22:01;8.50;1.00
1504;DHT22;743;47.076;15.494;2023-03-01T17:24:34;8.80;1.00
1504;DHT22;743;47.076;15.494;2023-03-01T17:27:06;8.90;1.00
1504;DHT22;743;47.076;15.494;2023-03-01T17:29:40;8.80;1.00
1504;DHT22;743;47.076;15.494;2023-03-01T17:32:09;8.80;1.00
1504;DHT22;743;47.076;15.494;2023-03-01T17:34:37;9.00;1.00
1504;DHT22;743;47.076;15.494;2023-03-01T17:37:08;8.40;1.00
1504;DHT22;743;47.076;15.494;2023-03-01T17:39:40;8.80;1.00
1504;DHT22;743;47.076;15.494;2023-03-01T17:42:14;8.40;1.00
1504;DHT22;743;47.076;15.494;2023-03-01T17:44:46;8.70;1.00
1504;DHT22;743;47.076;15.494;2023-03-01T17:47:29;8.20;1.00
1504;DHT22;743;47.076;15.494;2023-03-01T17:49:59;8.40;1.00
1504;DHT22;743;47.076;15.494;2023-03-01T17:52:28;8.30;1.00
1504;DHT22;743;47.076;15.494;2023-03-01T17:54:58;8.30;1.00
1504;DHT22;743;47.076;15.494;2023-03-01T17:57:33;8.20;1.00
1504;DHT22;743;47.076;15.494;2023-03-01T18:00:06;8.50;1.00
1504;DHT22;743;47.076;15.494;2023-03-01T18:02:36;8.40;1.00
1504;DHT22;743;47.076;15.494;2023-03-01T18:05:06;8.10;1.00
1504;DHT22;743;47.076;15.494;2023-03-01T18:07:35;8.10;1.00
1504;DHT22;743;47.076;15.494;2023-03-01T18:10:08;8.50;1.00
1504;DHT22;743;47.076;15.494;2023-03-01T18:12:44;8.40;1.00
1504;DHT22;743;47.076;15.494;2023-03-01T18:15:13;8.30;1.00